CYDO2: Sardis Lake

Data processed at Wed May 22 2019 23:50


All information presented herein is the property of the government of the United States of America and may be revised or deleted at any time without prior notice.
Dissemination of this information without the expressed written consent of the Public Affairs Office, Tulsa District U.S. Army Corps of Engineers is strictly prohibited.
These data are gathered electronically and, as presented, have not undergone any form of quality control. These data are not guaranteed to be valid or correct.
Go to home page.
Go to station list.
Go to home page.

Downstream station:


Previous Day
Next Day
Current Day
    
SHEF ID:       CYDO2     Sardis Lake
STATION TYPE:  RESERVOIR
Flood Pool:  Bottom =   599.00, Top =   607.00

               PRECIP PRECIP(A) ELEVATION   STORAGE    INFLOW   RELEASE  AIR-TEMP  WIND-DIRWIND-SPEED REL-HUMID SOLAR-RAD   VOLTAGE  BAT-LOAD
                   in        in        ft     ac-ft       cfs       cfs         F       deg       mph         %      W/m2      volt      volt
              Ccp-Rev   Ccp-Rev   Ccp-Rev   Ccp-Rev  Rev-Regi  Rev-Regi   Ccp-Rev   Ccp-Rev   Ccp-Rev   Ccp-Rev   Ccp-Rev   Ccp-Rev   Ccp-Rev
(US/Central)
05/22 00:00      0.00      ----    599.29    278148      1721       400     64.00    190.20     18.30     74.36      0.00     13.48     12.73
05/22 01:00      0.00      ----    599.29    278148      1391       400     63.86    194.40     16.90     72.17      0.00     13.47     12.73
05/22 02:00      0.00      ----    599.30    278285      1658       400     63.16    196.00     19.20     72.51      0.00     13.47     12.73
05/22 03:00      0.00      ----    599.30    278285      1321       400     62.62    199.30     20.80     74.85      0.00     13.47     12.73
05/22 04:00      0.01      ----    599.32    278558      1314       400     62.62    195.40     19.40     77.31      0.00     13.47     12.73
05/22 05:00      0.00      ----    599.31    278421       977       400     62.47    190.80     18.70     78.32      0.00     13.47     12.73
05/22 06:00      0.00      ----    599.32    278558       970       400     62.24    192.10     14.50     77.58      0.00     13.46     12.73
05/22 07:00      0.00      ----    599.32    278558       668       400     62.20    193.90     15.90     82.05      6.40     13.47     12.73
05/22 08:00      0.00      ----    599.32    278558       970       400     63.09    189.40     13.70     91.04     41.30     13.46     12.73
05/22 09:00      0.00      ----    599.33    278694       970       400     64.27    184.50     15.50     96.76    132.60     13.47     12.73
05/22 10:00      0.00      ----    599.34    278831       897       400     67.84    180.50     15.30     91.17    443.20     13.47     12.73
05/22 11:00      0.01      ----    599.34    278831       897       400     71.89    174.70     15.40     86.92    506.90     13.47     12.73
05/22 12:00      0.02      ----    599.33    278694       595       400     75.67    170.80     17.10     81.81    552.60     13.47     12.73
05/22 13:00      0.02      ----    599.33    278694       518       400     77.74    172.60     18.70     78.27    389.90     13.47     12.73
05/22 14:00      0.03      ----    599.33    278694       504       400     79.59    173.20     17.20     75.73    615.60     13.46     12.73
05/22 15:00      0.06      ----    599.34    278831       562       400     82.02    176.60     15.50     70.36    515.60     13.47     12.73
05/22 16:00      0.11      ----    599.34    278831       547       400     84.87    179.50     18.00     61.93    658.70     13.47     12.73
05/22 17:00      0.24      ----    599.32    278558       532       400     84.76    177.80     17.40     61.60    416.90     13.48     12.73
05/22 18:00      0.19      ----    599.34    278831       291       400     84.52    178.20     17.90     61.07    398.80     13.48     12.73
05/22 19:00      0.15      ----    599.34    278831       560       400     83.55    172.90     14.90     63.44    231.20     13.49     12.73
05/22 20:00      0.14      ----    599.34    278831       565       400     81.54    163.60     10.60     67.95     50.50     13.49     12.73
05/22 21:00      0.12      ----    599.35    278967       507       400     79.90    163.10      9.50     69.09      0.00     13.49     12.73
05/22 22:00      0.11      ----    599.35    278967       513       400     78.91    151.90      8.20     69.68      0.00     13.49     12.73
05/22 23:00      0.07      ----    599.34    278831       391       400     79.25    167.90     14.00     67.22      0.00     13.49     12.73